Time;durP1;ratioP1;P1;durP2;ratioP2;P2;SDS_P1;SDS_P2;PMS_P1;PMS_P2;Temp;Humidity;BMP_temperature;BMP_pressure;BME280_temperature;BME280_humidity;BME280_pressure;Samples;Min_cycle;Max_cycle;Signal;HPM_P1;HPM_P2
2022/11/14 00:01:19;;;;;;;38.17;15.73;;;;;;;;;;10388806;22;20095;-92
2022/11/14 00:05:23;;;;;;;34.75;14.50;;;;;;;;;;10388683;22;20053;-93
2022/11/14 00:09:26;;;;;;;41.67;15.90;;;;;;;;;;10388432;22;20027;-92
2022/11/14 00:13:29;;;;;;;37.05;14.27;;;;;;;;;;10387884;22;20027;-90
2022/11/14 00:17:31;;;;;;;37.38;14.90;;;;;;;;;;10388330;22;20046;-92
2022/11/14 00:21:37;;;;;;;35.28;15.63;;;;;;;;;;10388182;22;20031;-91
2022/11/14 00:25:39;;;;;;;32.63;14.13;;;;;;;;;;10388635;22;20448;-93
2022/11/14 00:29:42;;;;;;;33.08;14.82;;;;;;;;;;10385050;22;20055;-92
2022/11/14 00:33:44;;;;;;;22.83;10.05;;;;;;;;;;10434981;22;20019;-93
2022/11/14 00:37:49;;;;;;;36.88;15.27;;;;;;;;;;10435546;22;20011;-92
2022/11/14 00:41:51;;;;;;;34.22;15.80;;;;;;;;;;10438504;22;20047;-91
2022/11/14 00:45:54;;;;;;;34.42;15.35;;;;;;;;;;10441368;22;20004;-91
2022/11/14 00:49:56;;;;;;;35.50;14.68;;;;;;;;;;10398708;22;20440;-95
2022/11/14 00:54:00;;;;;;;38.67;15.25;;;;;;;;;;10393577;22;20104;-92
2022/11/14 00:58:03;;;;;;;39.00;15.88;;;;;;;;;;10391793;22;20390;-92
2022/11/14 01:02:06;;;;;;;26.17;11.68;;;;;;;;;;10391363;22;20027;-92
2022/11/14 01:06:13;;;;;;;28.77;13.50;;;;;;;;;;10391990;22;20019;-92
2022/11/14 01:10:18;;;;;;;35.28;15.32;;;;;;;;;;10391579;22;20120;-92
2022/11/14 01:14:20;;;;;;;31.15;14.60;;;;;;;;;;10391601;22;20344;-93
2022/11/14 01:18:23;;;;;;;36.67;14.68;;;;;;;;;;10391937;22;20046;-92
2022/11/14 01:22:26;;;;;;;29.33;13.40;;;;;;;;;;10391100;22;20023;-92
2022/11/14 01:26:30;;;;;;;34.05;14.85;;;;;;;;;;10391867;22;20321;-92
2022/11/14 01:30:32;;;;;;;31.48;12.93;;;;;;;;;;10364541;22;20024;-93
2022/11/14 01:34:35;;;;;;;31.10;14.43;;;;;;;;;;10391376;22;20020;-93
2022/11/14 01:38:38;;;;;;;29.55;11.98;;;;;;;;;;10391498;22;20024;-92
2022/11/14 01:42:42;;;;;;;31.75;13.50;;;;;;;;;;10391695;22;20089;-93
2022/11/14 01:46:51;;;;;;;33.30;14.85;;;;;;;;;;10391277;22;20020;-92
2022/11/14 01:50:58;;;;;;;33.30;13.90;;;;;;;;;;10391077;22;20057;-91
2022/11/14 01:55:07;;;;;;;30.42;12.43;;;;;;;;;;10390058;22;20077;-93
2022/11/14 01:59:14;;;;;;;30.38;13.60;;;;;;;;;;10407793;22;20073;-92
2022/11/14 02:03:17;;;;;;;34.08;13.93;;;;;;;;;;10391279;22;20020;-92
2022/11/14 02:07:20;;;;;;;40.75;15.48;;;;;;;;;;10390173;22;20407;-94
2022/11/14 02:11:22;;;;;;;36.35;14.63;;;;;;;;;;10390551;22;20032;-92
2022/11/14 02:15:27;;;;;;;35.83;14.20;;;;;;;;;;10390387;22;20019;-92
2022/11/14 02:19:41;;;;;;;36.83;12.88;;;;;;;;;;10389820;22;20023;-92
2022/11/14 02:23:45;;;;;;;37.85;14.65;;;;;;;;;;10390282;22;20020;-92
2022/11/14 02:27:47;;;;;;;39.70;16.42;;;;;;;;;;10390101;22;20364;-92
2022/11/14 02:31:50;;;;;;;37.78;16.83;;;;;;;;;;10389345;22;20022;-91
2022/11/14 02:35:53;;;;;;;42.70;17.58;;;;;;;;;;10388720;22;20020;-92
2022/11/14 02:39:57;;;;;;;39.83;17.55;;;;;;;;;;10388747;22;20019;-91
2022/11/14 02:44:00;;;;;;;30.05;12.20;;;;;;;;;;10389060;22;20019;-91
2022/11/14 02:48:02;;;;;;;40.22;16.50;;;;;;;;;;10388422;22;20482;-91
2022/11/14 02:52:05;;;;;;;40.05;15.98;;;;;;;;;;10388610;22;20019;-91
2022/11/14 02:56:09;;;;;;;39.22;16.15;;;;;;;;;;10389094;22;20081;-92
2022/11/14 03:00:13;;;;;;;40.22;16.70;;;;;;;;;;10388423;22;20444;-91
2022/11/14 03:04:16;;;;;;;36.00;14.70;;;;;;;;;;10388614;22;20336;-91
2022/11/14 03:08:18;;;;;;;36.33;15.95;;;;;;;;;;10388073;22;20424;-92
2022/11/14 03:12:22;;;;;;;39.70;16.50;;;;;;;;;;10388686;22;20020;-91
2022/11/14 03:16:25;;;;;;;37.38;16.05;;;;;;;;;;10388464;22;20020;-91
2022/11/14 03:20:28;;;;;;;44.55;19.52;;;;;;;;;;10387720;22;20042;-91
2022/11/14 03:24:30;;;;;;;42.08;20.92;;;;;;;;;;10388239;22;20020;-91
2022/11/14 03:28:35;;;;;;;28.67;13.20;;;;;;;;;;10387757;22;20019;-90
2022/11/14 03:32:37;;;;;;;31.98;14.93;;;;;;;;;;10388043;22;20020;-90
2022/11/14 03:36:40;;;;;;;35.70;15.63;;;;;;;;;;10387453;22;20019;-91
2022/11/14 03:40:43;;;;;;;30.85;13.88;;;;;;;;;;10387206;22;20019;-91
2022/11/14 03:44:47;;;;;;;28.80;13.52;;;;;;;;;;10387904;22;20566;-91
2022/11/14 03:48:49;;;;;;;35.92;14.13;;;;;;;;;;10360841;22;20020;-92
2022/11/14 03:52:52;;;;;;;33.30;17.15;;;;;;;;;;10388531;22;20022;-92
2022/11/14 03:56:55;;;;;;;28.17;12.30;;;;;;;;;;10387006;22;20030;-91
2022/11/14 04:01:00;;;;;;;37.50;16.35;;;;;;;;;;10387938;22;20020;-93
2022/11/14 04:05:02;;;;;;;14.23;5.88;;;;;;;;;;10388457;22;20019;-93
2022/11/14 04:09:06;;;;;;;39.17;19.40;;;;;;;;;;10388175;22;20043;-93
2022/11/14 04:13:10;;;;;;;37.13;16.27;;;;;;;;;;10388046;22;20348;-92
2022/11/14 04:17:16;;;;;;;30.15;13.57;;;;;;;;;;10388942;22;20020;-94
2022/11/14 04:21:18;;;;;;;37.05;15.27;;;;;;;;;;10391561;22;20535;-92
2022/11/14 04:25:21;;;;;;;27.63;12.30;;;;;;;;;;10392507;22;20016;-91
2022/11/14 04:29:24;;;;;;;38.72;20.65;;;;;;;;;;10392431;22;20026;-92
2022/11/14 04:33:28;;;;;;;46.95;20.70;;;;;;;;;;10391761;22;20046;-93
2022/11/14 04:37:34;;;;;;;41.50;22.55;;;;;;;;;;10392518;22;20020;-92
2022/11/14 04:41:37;;;;;;;41.10;21.83;;;;;;;;;;10392094;22;20444;-93
2022/11/14 04:45:39;;;;;;;49.53;23.10;;;;;;;;;;10392073;22;20016;-91
2022/11/14 04:49:43;;;;;;;43.08;26.27;;;;;;;;;;10390140;22;20016;-92
2022/11/14 04:53:46;;;;;;;66.80;51.70;;;;;;;;;;10390250;22;20027;-91
2022/11/14 04:57:53;;;;;;;41.08;20.05;;;;;;;;;;10390574;22;20049;-92
2022/11/14 05:01:56;;;;;;;44.38;25.60;;;;;;;;;;10407319;22;20011;-92
2022/11/14 05:06:03;;;;;;;46.08;25.08;;;;;;;;;;10389049;22;20026;-91
2022/11/14 05:10:06;;;;;;;33.83;15.43;;;;;;;;;;10407584;22;20019;-92
2022/11/14 05:14:09;;;;;;;70.45;41.70;;;;;;;;;;10391110;22;20031;-92
2022/11/14 05:18:12;;;;;;;31.55;14.93;;;;;;;;;;10388988;22;20016;-91
2022/11/14 05:22:18;;;;;;;30.92;13.68;;;;;;;;;;10389613;22;20023;-92
2022/11/14 05:26:20;;;;;;;56.72;27.75;;;;;;;;;;10392018;22;20019;-93
2022/11/14 05:30:24;;;;;;;52.97;35.67;;;;;;;;;;10391145;22;20030;-91
2022/11/14 05:34:27;;;;;;;94.13;66.55;;;;;;;;;;10390847;22;20077;-93
2022/11/14 05:38:31;;;;;;;49.85;29.75;;;;;;;;;;10390995;22;20065;-92
2022/11/14 05:42:34;;;;;;;31.35;15.85;;;;;;;;;;10391110;22;20024;-92
2022/11/14 05:46:37;;;;;;;60.75;38.10;;;;;;;;;;10362002;22;20360;-93
2022/11/14 05:50:39;;;;;;;65.72;40.95;;;;;;;;;;10387959;22;20054;-93
2022/11/14 05:54:44;;;;;;;88.65;66.97;;;;;;;;;;10388386;22;20027;-91
2022/11/14 05:58:47;;;;;;;63.22;31.83;;;;;;;;;;10389071;22;20016;-92
2022/11/14 06:02:53;;;;;;;41.63;22.77;;;;;;;;;;10389984;22;20015;-91
2022/11/14 06:06:55;;;;;;;46.20;20.67;;;;;;;;;;10389576;22;20020;-91
2022/11/14 06:11:03;;;;;;;103.40;43.28;;;;;;;;;;10389047;22;20031;-93
2022/11/14 06:15:06;;;;;;;72.75;47.97;;;;;;;;;;10425847;22;20015;-92
2022/11/14 06:19:09;;;;;;;48.05;22.40;;;;;;;;;;10432805;22;20019;-90
2022/11/14 06:23:11;;;;;;;34.13;14.60;;;;;;;;;;10437511;22;20034;-90
2022/11/14 06:27:16;;;;;;;26.55;9.48;;;;;;;;;;10439027;22;20014;-90
2022/11/14 06:31:19;;;;;;;23.02;11.90;;;;;;;;;;10431628;22;20043;-91
2022/11/14 06:35:22;;;;;;;41.88;23.17;;;;;;;;;;10390782;22;20020;-91
2022/11/14 06:39:24;;;;;;;75.57;37.35;;;;;;;;;;10388508;22;20103;-91
2022/11/14 06:43:29;;;;;;;84.65;49.50;;;;;;;;;;10386188;22;20020;-90
2022/11/14 06:47:31;;;;;;;99.00;62.58;;;;;;;;;;10387117;22;20020;-90
2022/11/14 06:51:35;;;;;;;51.35;18.83;;;;;;;;;;10386664;22;20023;-92
2022/11/14 06:55:38;;;;;;;41.40;16.50;;;;;;;;;;10399008;22;20501;-93
2022/11/14 06:59:43;;;;;;;35.78;16.30;;;;;;;;;;10391495;22;20503;-94
2022/11/14 07:03:48;;;;;;;39.33;14.90;;;;;;;;;;10390485;22;20027;-92
2022/11/14 07:07:53;;;;;;;33.40;12.60;;;;;;;;;;10391378;22;20023;-92
2022/11/14 07:11:55;;;;;;;52.45;24.70;;;;;;;;;;10390945;22;20015;-93
2022/11/14 07:16:00;;;;;;;54.50;22.42;;;;;;;;;;10389853;22;20409;-93
2022/11/14 07:20:08;;;;;;;21.38;8.50;;;;;;;;;;10389871;22;20024;-92
2022/11/14 07:24:11;;;;;;;57.45;30.35;;;;;;;;;;10389436;22;20504;-92
2022/11/14 07:28:13;;;;;;;81.78;31.45;;;;;;;;;;10389161;22;20073;-92
2022/11/14 07:32:18;;;;;;;53.83;20.92;;;;;;;;;;10389850;22;20352;-92
2022/11/14 07:36:21;;;;;;;57.60;31.58;;;;;;;;;;10388891;22;20030;-91
2022/11/14 07:40:24;;;;;;;67.25;31.83;;;;;;;;;;10389865;22;20356;-92
2022/11/14 07:44:26;;;;;;;68.15;40.95;;;;;;;;;;10389157;22;20045;-91
2022/11/14 07:48:31;;;;;;;58.10;25.77;;;;;;;;;;10385290;22;20027;-90
2022/11/14 07:52:38;;;;;;;91.53;48.03;;;;;;;;;;10383882;22;20016;-93
2022/11/14 07:56:44;;;;;;;84.90;40.08;;;;;;;;;;10383641;22;20034;-92
2022/11/14 08:00:47;;;;;;;104.65;35.80;;;;;;;;;;10385125;22;20404;-93
2022/11/14 08:04:53;;;;;;;58.67;35.17;;;;;;;;;;10359214;22;20019;-93
2022/11/14 08:08:59;;;;;;;64.10;30.42;;;;;;;;;;10384003;22;20077;-92
2022/11/14 08:13:07;;;;;;;48.25;30.73;;;;;;;;;;10399976;22;20023;-92
2022/11/14 08:17:11;;;;;;;239.38;103.57;;;;;;;;;;10384919;22;20118;-93
2022/11/14 08:21:48;;;;;;;64.85;31.00;;;;;;;;;;10394371;22;20024;-96
2022/11/14 08:25:54;;;;;;;79.78;41.55;;;;;;;;;;10383498;22;20023;-91
2022/11/14 08:29:57;;;;;;;98.75;45.72;;;;;;;;;;10382191;22;20020;-91
2022/11/14 08:34:00;;;;;;;47.30;24.13;;;;;;;;;;10383332;22;20135;-93
2022/11/14 08:38:07;;;;;;;37.35;16.08;;;;;;;;;;10385655;22;20031;-92
2022/11/14 08:42:11;;;;;;;35.65;16.48;;;;;;;;;;10399974;22;20514;-93
2022/11/14 08:46:16;;;;;;;40.25;16.95;;;;;;;;;;10383938;22;20018;-93
2022/11/14 08:50:19;;;;;;;68.28;30.02;;;;;;;;;;10386534;22;20025;-95
2022/11/14 08:54:23;;;;;;;52.95;25.10;;;;;;;;;;10386612;22;20456;-92
2022/11/14 08:58:29;;;;;;;50.72;23.63;;;;;;;;;;10394076;22;20024;-95
2022/11/14 09:02:35;;;;;;;42.35;18.65;;;;;;;;;;10391818;22;20464;-94
2022/11/14 09:06:40;;;;;;;57.78;24.65;;;;;;;;;;10395169;22;20020;-93
2022/11/14 09:10:48;;;;;;;63.97;33.80;;;;;;;;;;10396840;22;20095;-95
2022/11/14 09:14:52;;;;;;;67.20;37.05;;;;;;;;;;10395739;22;20129;-94
2022/11/14 09:18:55;;;;;;;52.15;27.55;;;;;;;;;;10379866;22;20265;-96
2022/11/14 09:23:18;;;;;;;43.42;19.20;;;;;;;;;;10394830;22;20016;-96
2022/11/14 09:27:39;;;;;;;51.67;21.52;;;;;;;;;;10408615;22;20023;-96
2022/11/14 09:31:46;;;;;;;53.67;23.10;;;;;;;;;;10416457;22;20027;-95
2022/11/14 09:35:59;;;;;;;48.03;24.42;;;;;;;;;;10399805;22;20525;-96
2022/11/14 09:50:09;;;;;;;125.43;44.00;;;;;;;;;;10005977;23;20396;-95
2022/11/14 09:54:34;;;;;;;45.97;19.58;;;;;;;;;;9995549;23;20444;-94
2022/11/14 09:58:49;;;;;;;90.40;41.97;;;;;;;;;;10016033;23;20297;-95
2022/11/14 10:09:06;;;;;;;77.90;33.70;;;;;;;;;;9955266;23;20023;-94
2022/11/14 10:18:48;;;;;;;31.63;13.15;;;;;;;;;;9965827;23;20083;-95
2022/11/14 10:23:11;;;;;;;36.05;17.15;;;;;;;;;;10007196;23;20042;-95
2022/11/14 10:27:29;;;;;;;75.18;32.15;;;;;;;;;;10183178;23;20057;-93
2022/11/14 10:31:44;;;;;;;91.43;39.10;;;;;;;;;;10183338;23;20030;-92
2022/11/14 10:36:06;;;;;;;45.45;20.35;;;;;;;;;;10194618;23;20053;-96
2022/11/14 10:40:17;;;;;;;41.65;17.30;;;;;;;;;;10161431;23;20029;-95
2022/11/14 10:50:23;;;;;;;40.97;17.63;;;;;;;;;;10364192;22;20040;-95
2022/11/14 10:54:34;;;;;;;41.07;17.37;;;;;;;;;;10313075;23;20457;-95
2022/11/14 10:58:38;;;;;;;38.65;18.48;;;;;;;;;;10313666;23;20071;-96
2022/11/14 11:02:52;;;;;;;34.67;16.80;;;;;;;;;;10350936;23;20024;-96
2022/11/14 11:12:52;;;;;;;30.85;14.88;;;;;;;;;;10339060;23;20028;-95
2022/11/14 11:17:21;;;;;;;33.88;16.25;;;;;;;;;;10352631;23;20159;-94
2022/11/14 11:21:24;;;;;;;38.17;16.38;;;;;;;;;;10262629;23;20340;-95
2022/11/14 11:25:31;;;;;;;42.13;16.60;;;;;;;;;;10313985;23;20031;-94
2022/11/14 11:29:41;;;;;;;42.20;19.65;;;;;;;;;;10376399;23;20071;-92
2022/11/14 11:33:44;;;;;;;75.97;35.40;;;;;;;;;;10343536;23;20384;-95
2022/11/14 11:37:53;;;;;;;46.53;23.63;;;;;;;;;;10339741;23;20016;-95
2022/11/14 11:42:02;;;;;;;33.42;16.58;;;;;;;;;;10356315;23;20016;-93
2022/11/14 11:46:12;;;;;;;37.60;18.45;;;;;;;;;;10341519;23;20016;-94
2022/11/14 11:50:19;;;;;;;31.30;14.40;;;;;;;;;;10348340;23;20027;-94
2022/11/14 11:54:26;;;;;;;34.22;16.00;;;;;;;;;;10340320;23;20099;-95
2022/11/14 11:58:35;;;;;;;36.50;16.90;;;;;;;;;;10339079;23;20024;-96
2022/11/14 12:02:42;;;;;;;39.65;21.30;;;;;;;;;;10339149;23;20050;-94
2022/11/14 12:06:49;;;;;;;34.25;15.88;;;;;;;;;;10341809;23;20043;-95
2022/11/14 12:10:54;;;;;;;34.70;16.65;;;;;;;;;;10343497;23;20028;-94
2022/11/14 12:15:13;;;;;;;69.63;27.52;;;;;;;;;;10383711;22;20000;-95
2022/11/14 12:19:33;;;;;;;68.53;25.52;;;;;;;;;;10401461;22;20010;-93
2022/11/14 12:24:10;;;;;;;106.28;29.98;;;;;;;;;;10386731;22;20020;-93
2022/11/14 12:28:29;;;;;;;31.55;15.63;;;;;;;;;;10372963;22;20106;-93
2022/11/14 12:32:41;;;;;;;56.97;22.63;;;;;;;;;;10357151;23;20092;-95
2022/11/14 12:36:55;;;;;;;;;;;;;;;;;;10359708;23;20020;-96
2022/11/14 12:41:02;;;;;;;51.75;20.60;;;;;;;;;;10362495;23;19916;-95
2022/11/14 12:45:55;;;;;;;32.53;16.00;;;;;;;;;;10340576;23;20048;-96
2022/11/14 12:50:20;;;;;;;39.90;20.13;;;;;;;;;;10339737;23;20028;-93
2022/11/14 12:54:43;;;;;;;30.77;14.15;;;;;;;;;;10340747;23;20023;-94
2022/11/14 12:58:59;;;;;;;46.75;23.38;;;;;;;;;;10340249;23;20119;-95
2022/11/14 13:03:27;;;;;;;41.78;20.55;;;;;;;;;;10341002;23;20023;-96
2022/11/14 13:07:44;;;;;;;49.45;19.08;;;;;;;;;;10341228;23;20063;-94
2022/11/14 13:25:22;;;;;;;49.05;22.73;;;;;;;;;;10355026;23;20095;-93
2022/11/14 13:29:58;;;;;;;54.88;21.63;;;;;;;;;;10354775;23;20020;-93
2022/11/14 13:34:29;;;;;;;55.60;22.48;;;;;;;;;;10338968;23;20020;-94
2022/11/14 13:39:11;;;;;;;57.42;26.48;;;;;;;;;;10340242;23;20016;-94
2022/11/14 13:43:24;;;;;;;44.95;21.35;;;;;;;;;;10337887;23;20059;-93
2022/11/14 13:47:54;;;;;;;53.05;22.85;;;;;;;;;;10355569;23;20020;-94
2022/11/14 13:52:01;;;;;;;44.65;23.75;;;;;;;;;;10310070;23;20035;-93
2022/11/14 13:56:20;;;;;;;64.85;23.90;;;;;;;;;;10341579;23;20051;-92
2022/11/14 14:00:24;;;;;;;49.15;19.23;;;;;;;;;;10289112;23;20078;-96
2022/11/14 14:04:46;;;;;;;41.72;19.05;;;;;;;;;;10343751;23;20016;-95
2022/11/14 14:09:05;;;;;;;37.55;19.05;;;;;;;;;;10343343;23;20022;-94
2022/11/14 14:13:16;;;;;;;39.63;17.58;;;;;;;;;;10339293;23;20105;-93
2022/11/14 14:17:30;;;;;;;37.78;16.15;;;;;;;;;;10339759;23;20024;-93
2022/11/14 14:21:53;;;;;;;44.70;18.15;;;;;;;;;;10354495;23;20135;-92
2022/11/14 14:35:31;;;;;;;45.17;19.45;;;;;;;;;;10353178;23;20056;-95
2022/11/14 14:39:40;;;;;;;50.88;22.35;;;;;;;;;;10329211;23;20047;-95
2022/11/14 14:43:52;;;;;;;50.25;21.15;;;;;;;;;;10344854;23;20111;-93
2022/11/14 14:48:02;;;;;;;38.40;18.40;;;;;;;;;;10318101;23;20024;-94
2022/11/14 14:52:22;;;;;;;37.08;16.38;;;;;;;;;;10338011;23;20039;-93
2022/11/14 14:56:26;;;;;;;46.55;18.92;;;;;;;;;;10351297;23;20023;-94
2022/11/14 15:00:29;;;;;;;41.40;18.10;;;;;;;;;;10342499;23;20047;-93
2022/11/14 15:04:38;;;;;;;42.20;20.15;;;;;;;;;;10346513;23;20039;-95
2022/11/14 15:08:43;;;;;;;43.35;20.02;;;;;;;;;;10364124;23;20020;-95
2022/11/14 15:23:02;;;;;;;40.95;18.05;;;;;;;;;;10309925;22;20325;-95
2022/11/14 15:33:24;;;;;;;46.13;21.27;;;;;;;;;;10207309;23;20105;-94
2022/11/14 15:37:32;;;;;;;55.83;22.83;;;;;;;;;;10197039;23;20022;-94
2022/11/14 15:47:13;;;;;;;45.72;20.15;;;;;;;;;;10312369;23;20030;-94
2022/11/14 15:56:18;;;;;;;35.85;15.98;;;;;;;;;;10335702;23;20031;-94
2022/11/14 16:00:52;;;;;;;49.25;22.00;;;;;;;;;;10346239;23;20020;-92
2022/11/14 16:05:12;;;;;;;70.18;34.55;;;;;;;;;;10329171;23;20027;-94
2022/11/14 16:10:00;;;;;;;55.13;24.50;;;;;;;;;;10314390;23;20463;-94
2022/11/14 16:15:07;;;;;;;44.25;20.15;;;;;;;;;;10297030;23;20027;-93
2022/11/14 16:19:49;;;;;;;110.53;50.30;;;;;;;;;;10344656;23;20617;-95
2022/11/14 16:24:04;;;;;;;46.28;22.50;;;;;;;;;;10361434;23;20095;-96
2022/11/14 16:28:27;;;;;;;45.28;19.92;;;;;;;;;;10316417;23;20031;-94
2022/11/14 16:32:39;;;;;;;54.78;24.50;;;;;;;;;;10340403;23;20016;-94
2022/11/14 16:42:19;;;;;;;41.72;18.60;;;;;;;;;;10336363;23;20024;-94
2022/11/14 16:47:32;;;;;;;47.28;22.40;;;;;;;;;;10319024;23;20032;-93
2022/11/14 16:52:26;;;;;;;101.78;40.80;;;;;;;;;;10332659;23;20024;-94
2022/11/14 16:57:20;;;;;;;107.10;41.33;;;;;;;;;;10277087;23;20028;-93
2022/11/14 17:01:56;;;;;;;43.17;22.13;;;;;;;;;;10333245;23;20460;-94
2022/11/14 17:06:03;;;;;;;46.50;20.95;;;;;;;;;;10350460;23;20043;-94
2022/11/14 17:10:16;;;;;;;45.15;21.08;;;;;;;;;;10332683;23;20024;-93
2022/11/14 17:14:28;;;;;;;43.83;20.73;;;;;;;;;;10331702;23;20550;-94
2022/11/14 17:18:31;;;;;;;49.40;23.25;;;;;;;;;;10334051;23;20683;-94
2022/11/14 17:22:35;;;;;;;49.83;23.13;;;;;;;;;;10308933;23;20024;-93
2022/11/14 17:26:37;;;;;;;54.83;21.30;;;;;;;;;;10337438;23;20078;-93
2022/11/14 17:30:42;;;;;;;58.50;27.20;;;;;;;;;;10337873;23;20047;-93
2022/11/14 17:43:57;;;;;;;40.17;17.25;;;;;;;;;;10350857;22;20020;-93
2022/11/14 18:20:42;;;;;;;41.33;18.67;;;;;;;;;;10299058;22;20127;-93
2022/11/14 18:24:46;;;;;;;49.60;19.95;;;;;;;;;;10337398;23;20074;-93
2022/11/14 18:28:53;;;;;;;72.63;35.65;;;;;;;;;;10309927;23;20031;-94
2022/11/14 18:32:57;;;;;;;47.40;23.08;;;;;;;;;;10338310;23;20020;-93
2022/11/14 18:37:01;;;;;;;47.53;20.38;;;;;;;;;;10337662;23;20111;-92
2022/11/14 18:41:07;;;;;;;56.63;23.65;;;;;;;;;;10336837;23;20020;-94
2022/11/14 18:45:11;;;;;;;56.38;24.27;;;;;;;;;;10337116;23;20081;-93
2022/11/14 18:49:24;;;;;;;55.60;23.55;;;;;;;;;;10355489;23;20550;-94
2022/11/14 18:53:33;;;;;;;60.35;27.90;;;;;;;;;;10353615;23;20401;-93
2022/11/14 19:01:49;;;;;;;49.28;21.20;;;;;;;;;;10189387;23;20053;-93
2022/11/14 19:06:01;;;;;;;46.58;18.98;;;;;;;;;;10208164;23;20022;-94
2022/11/14 19:10:17;;;;;;;61.63;25.33;;;;;;;;;;10189116;23;20039;-94
2022/11/14 19:14:31;;;;;;;61.70;24.95;;;;;;;;;;10298175;23;20032;-93
2022/11/14 19:18:36;;;;;;;53.78;21.88;;;;;;;;;;10339961;23;20020;-93
2022/11/14 19:22:45;;;;;;;62.35;25.75;;;;;;;;;;10363610;23;20071;-93
2022/11/14 19:26:55;;;;;;;59.47;23.38;;;;;;;;;;10331652;23;20004;-94
2022/11/14 19:31:07;;;;;;;64.95;25.70;;;;;;;;;;10355530;22;20024;-93
2022/11/14 19:35:10;;;;;;;53.42;21.40;;;;;;;;;;10354295;22;20011;-94
2022/11/14 19:39:20;;;;;;;49.78;23.08;;;;;;;;;;10386213;22;20004;-93
2022/11/14 19:43:28;;;;;;;51.75;22.20;;;;;;;;;;10380529;22;20008;-93
2022/11/14 19:47:34;;;;;;;41.28;20.02;;;;;;;;;;10348562;23;20016;-96
2022/11/14 19:51:37;;;;;;;52.00;21.30;;;;;;;;;;10317007;23;20031;-94
2022/11/14 19:55:41;;;;;;;32.80;14.88;;;;;;;;;;10313723;23;20039;-94
2022/11/14 19:59:45;;;;;;;47.13;20.88;;;;;;;;;;10350765;23;20023;-95
2022/11/14 20:03:55;;;;;;;42.50;18.05;;;;;;;;;;10345965;23;20091;-93
2022/11/14 20:07:57;;;;;;;51.20;20.08;;;;;;;;;;10343496;23;20035;-95
2022/11/14 20:12:04;;;;;;;49.97;21.40;;;;;;;;;;10340175;23;20030;-94
2022/11/14 20:16:13;;;;;;;47.85;19.75;;;;;;;;;;10342302;23;20345;-94
2022/11/14 20:20:17;;;;;;;52.53;19.00;;;;;;;;;;10315092;23;20441;-93
2022/11/14 20:24:23;;;;;;;51.33;20.63;;;;;;;;;;10341682;23;20020;-94
2022/11/14 20:28:29;;;;;;;50.45;20.45;;;;;;;;;;10344130;23;20155;-94
2022/11/14 20:32:36;;;;;;;43.60;18.85;;;;;;;;;;10340962;23;20016;-95
2022/11/14 20:36:42;;;;;;;29.23;13.20;;;;;;;;;;10315996;23;20020;-93
2022/11/14 20:40:52;;;;;;;41.53;16.38;;;;;;;;;;10340624;23;20036;-95
2022/11/14 20:44:56;;;;;;;17.42;7.22;;;;;;;;;;10344801;23;20539;-93
2022/11/14 20:49:03;;;;;;;43.30;18.70;;;;;;;;;;10340287;23;20436;-94
2022/11/14 20:53:07;;;;;;;49.90;20.60;;;;;;;;;;10356522;23;20020;-93
2022/11/14 20:57:10;;;;;;;49.20;19.17;;;;;;;;;;10313105;23;20464;-95
2022/11/14 21:01:15;;;;;;;49.10;19.02;;;;;;;;;;10342389;23;20058;-93
2022/11/14 21:05:19;;;;;;;44.78;18.83;;;;;;;;;;10343322;23;20318;-93
2022/11/14 21:09:22;;;;;;;49.38;17.95;;;;;;;;;;10343032;23;20020;-94
2022/11/14 21:17:45;;;;;;;43.67;17.85;;;;;;;;;;10359140;23;20036;-94
2022/11/14 21:21:49;;;;;;;41.55;18.33;;;;;;;;;;10342272;23;20353;-95
2022/11/14 21:25:52;;;;;;;46.20;18.50;;;;;;;;;;10342604;23;20095;-94
2022/11/14 21:29:54;;;;;;;45.42;17.92;;;;;;;;;;10342535;23;20020;-96
2022/11/14 21:33:59;;;;;;;55.53;23.73;;;;;;;;;;10342733;23;20038;-96
2022/11/14 21:38:03;;;;;;;44.22;20.75;;;;;;;;;;10342772;23;20016;-94
2022/11/14 21:42:06;;;;;;;54.63;22.85;;;;;;;;;;10342403;23;20047;-95
2022/11/14 21:46:10;;;;;;;10.02;4.82;;;;;;;;;;10342888;23;20089;-94
2022/11/14 21:50:13;;;;;;;51.92;23.25;;;;;;;;;;10342491;23;20512;-93
2022/11/14 21:54:17;;;;;;;48.03;21.48;;;;;;;;;;10341043;23;20043;-96
2022/11/14 21:58:20;;;;;;;38.60;16.83;;;;;;;;;;10342154;23;20104;-95
2022/11/14 22:06:44;;;;;;;40.72;16.90;;;;;;;;;;10315565;23;20028;-94
2022/11/14 22:10:47;;;;;;;43.30;19.73;;;;;;;;;;10341672;23;20020;-95
2022/11/14 22:14:50;;;;;;;39.83;19.15;;;;;;;;;;10342084;23;20044;-95
2022/11/14 22:18:54;;;;;;;36.88;15.45;;;;;;;;;;10341675;23;20047;-96
2022/11/14 22:22:57;;;;;;;48.13;21.65;;;;;;;;;;10315022;23;20043;-95
2022/11/14 22:27:01;;;;;;;41.80;22.63;;;;;;;;;;10342187;23;20016;-95
2022/11/14 22:31:06;;;;;;;46.88;20.02;;;;;;;;;;10342238;23;20052;-95
2022/11/14 22:35:09;;;;;;;41.00;19.35;;;;;;;;;;10342355;23;20020;-94
2022/11/14 22:39:12;;;;;;;35.47;13.68;;;;;;;;;;10342002;23;20090;-95
2022/11/14 22:43:21;;;;;;;43.67;18.60;;;;;;;;;;10340889;23;20024;-95
2022/11/14 22:47:24;;;;;;;42.58;20.05;;;;;;;;;;10359162;23;20027;-96
2022/11/14 22:51:27;;;;;;;52.67;22.05;;;;;;;;;;10315748;23;20074;-95
2022/11/14 22:55:30;;;;;;;51.00;20.65;;;;;;;;;;10314503;23;20020;-95
2022/11/14 22:59:35;;;;;;;32.97;14.88;;;;;;;;;;10341914;23;20525;-94
2022/11/14 23:03:39;;;;;;;45.85;20.00;;;;;;;;;;10341709;23;20020;-92
2022/11/14 23:07:41;;;;;;;43.92;18.98;;;;;;;;;;10341303;23;20595;-96
2022/11/14 23:11:46;;;;;;;45.63;18.95;;;;;;;;;;10340899;23;20043;-95
2022/11/14 23:15:50;;;;;;;48.08;20.65;;;;;;;;;;10341483;23;20437;-96
2022/11/14 23:19:53;;;;;;;38.35;15.77;;;;;;;;;;10341222;23;20020;-94
2022/11/14 23:23:57;;;;;;;43.90;19.45;;;;;;;;;;10341296;23;20115;-95
2022/11/14 23:28:00;;;;;;;50.75;19.80;;;;;;;;;;10341406;23;20471;-95
2022/11/14 23:32:04;;;;;;;47.90;19.05;;;;;;;;;;10341295;23;20065;-95
2022/11/14 23:36:08;;;;;;;44.40;16.52;;;;;;;;;;10340152;23;20125;-94
2022/11/14 23:40:11;;;;;;;47.33;17.02;;;;;;;;;;10340085;23;20027;-94
2022/11/14 23:44:14;;;;;;;46.05;18.50;;;;;;;;;;10340363;23;20016;-95
2022/11/14 23:48:20;;;;;;;17.05;8.15;;;;;;;;;;10340433;23;20016;-94
2022/11/14 23:52:23;;;;;;;47.55;17.75;;;;;;;;;;10339474;23;20044;-93
2022/11/14 23:56:25;;;;;;;44.53;18.02;;;;;;;;;;10339961;23;20020;-94
